This is the latest recevied weather packets stored in our database for station/object K7SKM. If no packets are shown the sender has not sent any weather packets the latest 10 day(s).
| Time | Temp. | Humidity | Pressure | Rain* | Wind** | Luminosity | Snow |
|---|---|---|---|---|---|---|---|
| 1787951136 | 22.22° C | 54% | 1022 hPa | 0 mm | - | 442 W/m² | - |
| 1787950832 | 22.22° C | 54% | 1022 hPa | 0 mm | - | 134 W/m² | - |
| 1787950527 | 21.67° C | 56% | 1022.2 hPa | 0 mm | - | 358 W/m² | - |
| 1787950223 | 21.67° C | 58% | 1022 hPa | 0 mm | - | 486 W/m² | - |
| 1787949919 | 21.11° C | 59% | 1022 hPa | 0 mm | - | 502 W/m² | - |
| 1787949614 | 21.67° C | 58% | 1022.2 hPa | 0 mm | - | 142 W/m² | - |
| 1787949309 | 21.67° C | 57% | 1022 hPa | 0 mm | - | 151 W/m² | - |
| 1787949004 | 21.67° C | 57% | 1022.2 hPa | 0 mm | - | 158 W/m² | - |
| 1787948699 | 22.22° C | 57% | 1022.2 hPa | 0 mm | - | 151 W/m² | - |
| 1787948394 | 21.67° C | 57% | 1022.3 hPa | 0 mm | - | 150 W/m² | - |
| 1787948094 | 21.67° C | 57% | 1022.4 hPa | 0 mm | - | 328 W/m² | - |
| 1787947788 | 22.22° C | 57% | 1022.4 hPa | 0 mm | - | 140 W/m² | - |
| 1787947487 | 21.67° C | 58% | 1022.3 hPa | 0 mm | - | 284 W/m² | - |
| 1787947187 | 20.56° C | 60% | 1022.3 hPa | 0 mm | - | 331 W/m² | - |
| 1787946886 | 22.22° C | 57% | 1022.4 hPa | 0 mm | - | 222 W/m² | - |
| 1787946584 | 21.67° C | 58% | 1022.5 hPa | 0 mm | - | 200 W/m² | - |
| 1787946281 | 21.67° C | 59% | 1022.4 hPa | 0 mm | - | 221 W/m² | - |
| 1787945979 | 20.56° C | 61% | 1022.4 hPa | 0 mm | - | 184 W/m² | - |
| 1787945669 | 21.11° C | 60% | 1022.5 hPa | 0 mm | - | 185 W/m² | - |
| 1787945369 | 21.11° C | 60% | 1022.7 hPa | 0 mm | - | 177 W/m² | - |
| 1787945064 | 20.56° C | 60% | 1022.7 hPa | 0 mm | - | 179 W/m² | - |
| 1787944761 | 20.56° C | 60% | 1022.7 hPa | 0 mm | - | 183 W/m² | - |
| 1787944457 | 20° C | 63% | 1022.6 hPa | 0 mm | - | 169 W/m² | - |
| 1787944153 | 20° C | 63% | 1022.8 hPa | 0 mm | - | 149 W/m² | - |
| 1787943848 | 20° C | 64% | 1022.9 hPa | 0 mm | - | 128 W/m² | - |
* Rain latest hour (hover to see other rain measurements)
** Current wind speed in m/s (hover to see current wind gust speed)